Time;durP1;ratioP1;P1;durP2;ratioP2;P2;SDS_P1;SDS_P2;PMS_P1;PMS_P2;Temp;Humidity;BMP_temperature;BMP_pressure;BME280_temperature;BME280_humidity;BME280_pressure;Samples;Min_cycle;Max_cycle;Signal;HPM_P1;HPM_P2
2023/10/31 02:00:44;;;;;;;;;0.67;0.67;;;;;13.88;90.49;99397.66;6121695;22;46765;-84
2023/10/31 02:03:16;;;;;;;;;3.00;2.00;;;;;13.83;90.91;99411.09;6215998;22;45392;-83
2023/10/31 02:05:41;;;;;;;;;3.00;1.33;;;;;13.45;91.15;99390.50;6190553;22;45326;-82
2023/10/31 02:08:10;;;;;;;;;3.33;1.00;;;;;13.50;91.27;99410.00;6189665;22;47332;-83
2023/10/31 02:10:35;;;;;;;;;0.67;0.33;;;;;13.53;91.30;99412.59;6216833;22;44862;-83
2023/10/31 02:13:14;;;;;;;;;1.00;1.00;;;;;13.74;90.75;99405.97;6190374;22;45589;-82
2023/10/31 02:15:40;;;;;;;;;2.00;2.00;;;;;13.55;91.26;99419.69;6190587;22;44832;-82
2023/10/31 02:18:07;;;;;;;;;2.33;2.33;;;;;13.58;91.91;99406.25;6189932;22;47350;-83
2023/10/31 02:20:32;;;;;;;;;1.00;1.00;;;;;13.57;91.88;99408.94;6188803;22;45229;-83
2023/10/31 02:22:58;;;;;;;;;3.00;3.00;;;;;13.61;91.56;99416.00;6215748;22;45253;-83
2023/10/31 02:25:23;;;;;;;;;2.00;2.00;;;;;13.68;91.59;99427.47;6215406;22;45368;-83
2023/10/31 02:27:49;;;;;;;;;4.00;4.00;;;;;13.71;91.52;99430.94;6219729;22;45589;-83
2023/10/31 02:30:14;;;;;;;;;2.00;2.00;;;;;13.77;91.67;99428.13;6193501;22;45338;-83
2023/10/31 02:32:40;;;;;;;;;3.67;3.00;;;;;13.81;91.94;99420.94;6192413;22;45408;-83
2023/10/31 02:35:06;;;;;;;;;3.33;3.33;;;;;13.92;91.77;99426.09;6219181;22;45705;-83
2023/10/31 02:37:32;;;;;;;;;3.67;3.67;;;;;13.90;91.98;99422.56;6190550;22;47951;-83
2023/10/31 02:39:58;;;;;;;;;3.00;3.00;;;;;13.95;91.92;99426.00;6191789;22;44975;-83
2023/10/31 02:42:24;;;;;;;;;1.00;1.00;;;;;13.99;92.01;99417.88;6217793;22;44820;-83
2023/10/31 02:44:49;;;;;;;;;5.67;4.00;;;;;13.97;92.01;99405.47;6217093;22;45270;-83
2023/10/31 02:47:14;;;;;;;;;5.00;5.00;;;;;14.00;91.59;99410.78;6214943;22;46935;-83
2023/10/31 02:49:40;;;;;;;;;6.33;4.00;;;;;14.03;92.25;99416.03;6214646;22;45411;-83
2023/10/31 02:52:05;;;;;;;;;5.00;4.67;;;;;14.11;91.81;99411.41;6217333;22;45316;-83
2023/10/31 02:54:31;;;;;;;;;5.67;3.67;;;;;14.04;91.92;99415.13;6217102;22;45357;-83
2023/10/31 02:56:57;;;;;;;;;8.00;6.00;;;;;14.04;91.87;99415.13;6216143;22;45011;-84
2023/10/31 02:59:22;;;;;;;;;5.00;3.67;;;;;14.06;91.92;99418.66;6212966;22;45379;-83
2023/10/31 03:01:47;;;;;;;;;4.67;3.00;;;;;14.06;92.05;99413.31;6218316;22;45252;-83
2023/10/31 03:04:13;;;;;;;;;2.00;2.00;;;;;14.01;92.25;99416.06;6191414;22;45609;-83
2023/10/31 03:06:38;;;;;;;;;7.00;5.33;;;;;13.99;92.40;99411.66;6215881;22;46980;-83
2023/10/31 03:09:03;;;;;;;;;8.00;6.33;;;;;13.99;92.14;99417.00;6219614;22;44762;-83
2023/10/31 03:11:29;;;;;;;;;4.00;4.00;;;;;13.99;92.59;99417.00;6219319;22;45250;-83
2023/10/31 03:13:56;;;;;;;;;3.67;3.67;;;;;13.97;92.46;99424.19;6217931;22;45684;-83
2023/10/31 03:16:22;;;;;;;;;4.00;4.00;;;;;13.96;92.86;99417.09;6216726;22;45852;-83
2023/10/31 03:18:47;;;;;;;;;5.00;3.00;;;;;13.98;92.67;99431.31;6216448;22;44913;-83
2023/10/31 03:21:13;;;;;;;;;4.00;4.00;;;;;14.03;92.84;99439.22;6218770;22;45419;-83
2023/10/31 03:23:40;;;;;;;;;5.33;5.33;;;;;14.20;93.04;99443.31;6190921;22;45523;-83
2023/10/31 03:26:06;;;;;;;;;8.00;3.00;;;;;14.03;93.09;99428.53;6217083;22;45302;-83
2023/10/31 03:28:31;;;;;;;;;4.00;4.00;;;;;14.08;93.25;99442.66;6216704;22;45300;-83
2023/10/31 03:30:56;;;;;;;;;6.00;6.00;;;;;14.11;93.12;99454.19;6215489;22;45333;-82
2023/10/31 03:33:22;;;;;;;;;6.00;6.00;;;;;14.19;92.92;99452.22;6216381;22;45274;-82
2023/10/31 03:39:19;;;;;;;;;7.67;3.67;;;;;14.20;92.78;99451.31;6218999;22;44872;-83
2023/10/31 03:41:46;;;;;;;;;2.00;2.00;;;;;14.23;92.78;99452.16;6218010;22;45747;-82
2023/10/31 03:44:14;;;;;;;;;5.00;5.00;;;;;14.25;92.98;99455.69;6190750;22;45410;-82
2023/10/31 03:46:40;;;;;;;;;3.67;3.67;;;;;14.26;92.99;99449.41;6213706;22;45312;-81
2023/10/31 03:49:07;;;;;;;;;3.67;3.67;;;;;14.26;93.20;99444.06;6219311;22;45311;-83
2023/10/31 03:51:33;;;;;;;;;3.00;3.00;;;;;14.25;92.88;99442.31;6216640;22;45348;-84
2023/10/31 03:53:59;;;;;;;;;6.33;5.00;;;;;14.33;92.82;99459.06;6216616;22;45448;-83
2023/10/31 03:56:25;;;;;;;;;4.00;4.00;;;;;14.37;92.72;99453.63;6216834;22;47090;-83
2023/10/31 03:58:50;;;;;;;;;5.67;5.67;;;;;14.40;92.71;99449.97;6191992;22;45700;-82
2023/10/31 04:01:22;;;;;;;;;6.33;5.33;;;;;14.72;92.32;99468.00;6217865;22;45350;-84
2023/10/31 04:03:49;;;;;;;;;3.00;3.00;;;;;14.43;92.44;99459.75;6192223;22;44907;-83
2023/10/31 04:06:14;;;;;;;;;3.00;3.00;;;;;14.44;92.62;99467.75;6216456;22;47262;-84
2023/10/31 04:08:39;;;;;;;;;3.33;3.00;;;;;14.48;92.70;99480.16;6218320;22;45310;-84
2023/10/31 04:11:05;;;;;;;;;5.00;4.33;;;;;14.46;92.52;99460.59;6217751;22;45351;-84
2023/10/31 04:13:31;;;;;;;;;4.00;4.00;;;;;14.45;92.28;99469.50;6216871;22;45387;-84
2023/10/31 04:15:56;;;;;;;;;2.67;2.67;;;;;14.48;92.60;99473.91;6191254;22;48425;-83
2023/10/31 04:18:21;;;;;;;;;7.33;7.33;;;;;14.49;92.30;99473.00;6191239;22;45251;-83
2023/10/31 04:20:47;;;;;;;;;2.00;2.00;;;;;14.50;92.44;99472.97;6217547;22;45325;-83
2023/10/31 04:23:15;;;;;;;;;3.33;3.33;;;;;14.58;92.33;99480.84;6191228;22;45341;-83
2023/10/31 04:25:40;;;;;;;;;4.00;4.00;;;;;14.50;92.40;99464.94;6218677;22;45383;-83
2023/10/31 04:28:06;;;;;;;;;3.00;3.00;;;;;14.60;92.28;99484.34;6217184;22;45443;-83
2023/10/31 04:30:32;;;;;;;;;4.67;4.67;;;;;14.59;92.33;99488.84;6217773;22;45343;-82
2023/10/31 04:32:57;;;;;;;;;4.00;4.00;;;;;14.56;92.51;99482.66;6218376;22;45443;-83
2023/10/31 04:35:22;;;;;;;;;2.67;2.67;;;;;14.47;92.62;99464.13;6215677;22;45717;-82
2023/10/31 04:37:48;;;;;;;;;8.33;7.00;;;;;14.63;92.69;99494.13;6190507;22;45509;-82
2023/10/31 04:40:13;;;;;;;;;9.00;4.00;;;;;14.63;92.79;99489.66;6218596;22;45348;-83
2023/10/31 04:42:39;;;;;;;;;3.33;3.33;;;;;14.79;92.75;99508.91;6189860;22;45402;-83
2023/10/31 04:45:06;;;;;;;;;3.33;3.33;;;;;14.78;92.80;99505.38;6218410;22;45343;-83
2023/10/31 04:47:31;;;;;;;;;7.67;7.33;;;;;14.73;92.70;99506.38;6191571;22;45379;-83
2023/10/31 04:49:56;;;;;;;;;6.33;6.33;;;;;14.80;92.78;99513.34;6219437;22;45272;-83
2023/10/31 04:52:22;;;;;;;;;4.67;4.67;;;;;14.76;92.91;99504.50;6190440;22;45242;-84
2023/10/31 04:54:48;;;;;;;;;5.00;4.67;;;;;14.81;92.85;99515.13;6215277;22;47000;-83
2023/10/31 04:57:13;;;;;;;;;3.00;3.00;;;;;14.83;93.02;99512.41;6190522;22;45375;-82
2023/10/31 04:59:39;;;;;;;;;4.67;4.67;;;;;14.89;92.70;99514.94;6216433;22;45331;-84
2023/10/31 05:02:04;;;;;;;;;4.00;4.00;;;;;14.91;92.78;99515.78;6215105;22;44830;-83
2023/10/31 05:04:29;;;;;;;;;7.00;5.00;;;;;14.92;92.84;99514.84;6191124;22;45420;-83
2023/10/31 05:06:55;;;;;;;;;5.00;4.33;;;;;14.95;92.88;99514.81;6191447;22;45583;-83
2023/10/31 05:09:21;;;;;;;;;5.00;5.00;;;;;14.99;92.67;99519.16;6217559;22;45389;-83
2023/10/31 05:11:46;;;;;;;;;6.67;6.00;;;;;15.00;92.79;99521.78;6190571;22;45404;-83
2023/10/31 05:14:37;;;;;;;;;4.67;4.67;;;;;15.33;92.41;99513.88;6217161;22;46538;-83
2023/10/31 05:17:02;;;;;;;;;7.00;5.00;;;;;15.06;92.70;99520.75;6189891;22;45355;-82
2023/10/31 05:19:28;;;;;;;;;5.00;3.67;;;;;15.07;92.72;99527.00;6216446;22;45297;-83
2023/10/31 05:21:53;;;;;;;;;4.00;4.00;;;;;15.07;92.88;99521.63;6216500;22;45658;-84
2023/10/31 05:24:19;;;;;;;;;9.00;7.33;;;;;15.13;92.73;99529.56;6141901;22;46535;-83
2023/10/31 05:26:46;;;;;;;;;4.00;4.00;;;;;15.34;92.85;99531.69;6216571;22;45144;-83
2023/10/31 05:29:12;;;;;;;;;5.50;4.00;;;;;15.20;92.48;99529.34;6191728;22;44812;-83
2023/10/31 05:31:37;;;;;;;;;7.75;7.25;;;;;15.20;92.65;99539.19;6216202;22;45366;-83
2023/10/31 05:34:06;;;;;;;;;5.50;3.75;;;;;15.22;92.61;99536.47;6215081;22;47260;-83
2023/10/31 05:36:32;;;;;;;;;6.50;5.00;;;;;15.20;92.82;99536.50;6216967;22;45379;-83
2023/10/31 05:38:57;;;;;;;;;6.00;3.75;;;;;15.24;92.60;99540.00;6214194;22;45352;-82
2023/10/31 05:41:23;;;;;;;;;5.50;4.25;;;;;15.19;92.83;99532.09;6190890;22;45325;-83
2023/10/31 05:43:48;;;;;;;;;3.25;3.25;;;;;15.24;92.61;99540.00;6215104;22;47061;-83
2023/10/31 05:46:14;;;;;;;;;5.00;5.00;;;;;15.23;92.49;99533.78;6191853;22;45351;-82
2023/10/31 05:48:41;;;;;;;;;4.50;4.50;;;;;15.32;92.81;99544.25;6216802;22;45357;-83
2023/10/31 05:51:15;;;;;;;;;5.00;4.00;;;;;15.53;92.58;99549.97;6219227;22;45383;-83
2023/10/31 05:53:42;;;;;;;;;5.00;5.00;;;;;15.29;92.75;99538.97;6190766;22;47231;-83
2023/10/31 05:56:09;;;;;;;;;7.00;7.00;;;;;15.42;92.54;99557.41;6217952;22;45389;-83
2023/10/31 05:58:34;;;;;;;;;5.67;4.00;;;;;15.34;92.42;99545.06;6217305;22;45408;-83
2023/10/31 06:00:59;;;;;;;;;5.00;5.00;;;;;15.33;92.36;99546.00;6219186;22;45661;-83
2023/10/31 06:03:25;;;;;;;;;7.00;7.00;;;;;15.34;92.52;99544.22;6215978;22;47083;-84
2023/10/31 06:05:51;;;;;;;;;4.00;4.00;;;;;15.32;92.41;99552.28;6217584;22;45446;-84
2023/10/31 06:08:17;;;;;;;;;3.00;3.00;;;;;15.29;92.71;99547.00;6218288;22;44827;-83
2023/10/31 06:10:42;;;;;;;;;5.67;4.00;;;;;15.38;92.43;99544.09;6216651;22;45401;-83
2023/10/31 06:13:09;;;;;;;;;6.00;5.33;;;;;15.54;92.63;99547.25;6220595;22;45281;-83
2023/10/31 06:15:34;;;;;;;;;4.00;4.00;;;;;15.42;92.11;99549.38;6220876;22;45279;-83
2023/10/31 06:18:03;;;;;;;;;9.00;6.00;;;;;15.59;91.88;99539.09;6194200;22;45338;-83
2023/10/31 06:20:28;;;;;;;;;4.00;4.00;;;;;15.39;91.82;99545.84;6218648;22;45347;-83
2023/10/31 06:22:54;;;;;;;;;7.75;5.50;;;;;15.38;91.95;99554.81;6194244;22;46933;-83
2023/10/31 06:25:19;;;;;;;;;3.25;3.25;;;;;15.36;91.51;99550.41;6218365;22;44856;-84
2023/10/31 06:27:45;;;;;;;;;4.00;4.00;;;;;15.30;91.46;99540.72;6218257;22;45177;-83
2023/10/31 06:30:11;;;;;;;;;4.00;4.00;;;;;15.28;91.56;99558.63;6217050;22;44970;-84
2023/10/31 06:32:36;;;;;;;;;4.75;3.25;;;;;15.21;91.64;99559.72;6217689;22;44956;-83
2023/10/31 06:35:02;;;;;;;;;3.00;3.00;;;;;15.28;91.39;99566.66;6192606;22;45363;-84
2023/10/31 06:37:27;;;;;;;;;2.50;2.25;;;;;15.27;91.32;99570.28;6219634;22;45097;-84
2023/10/31 06:39:53;;;;;;;;;5.50;4.00;;;;;15.26;91.41;99565.81;6192565;22;45207;-84
2023/10/31 06:42:18;;;;;;;;;3.25;3.25;;;;;15.17;91.30;99555.34;6190261;22;47770;-84
2023/10/31 06:44:43;;;;;;;;;4.75;2.50;;;;;15.18;91.17;99567.81;6217559;22;45353;-84
2023/10/31 06:47:15;;;;;;;;;3.50;2.50;;;;;15.13;91.11;99557.22;6217052;22;45276;-84
2023/10/31 06:49:40;;;;;;;;;2.50;2.50;;;;;15.14;90.85;99571.47;6219954;22;44808;-84
2023/10/31 06:52:06;;;;;;;;;4.50;3.00;;;;;15.18;90.88;99567.81;6218272;22;47146;-84
2023/10/31 06:54:31;;;;;;;;;4.75;4.00;;;;;15.18;90.81;99567.81;6219803;22;45321;-84
2023/10/31 06:56:57;;;;;;;;;2.00;2.00;;;;;15.13;90.79;99564.38;6219497;22;44939;-85
2023/10/31 06:59:22;;;;;;;;;2.00;2.00;;;;;15.14;90.59;99571.47;6218510;22;44860;-84
2023/10/31 07:01:48;;;;;;;;;3.25;3.00;;;;;15.15;90.48;99582.16;6219843;22;45044;-84
2023/10/31 07:04:13;;;;;;;;;3.75;3.00;;;;;15.20;91.06;99584.72;6220789;22;45344;-84
2023/10/31 07:06:42;;;;;;;;;2.00;2.00;;;;;15.46;90.95;99584.09;6222739;22;44800;-84
2023/10/31 07:09:08;;;;;;;;;2.25;2.00;;;;;15.24;90.61;99577.50;6193816;22;45501;-84
2023/10/31 07:11:36;;;;;;;;;3.00;3.00;;;;;15.32;90.37;99587.09;6193237;22;45512;-84
2023/10/31 07:14:02;;;;;;;;;3.25;3.00;;;;;15.27;90.18;99572.94;6201980;22;44777;-84
2023/10/31 07:19:49;;;;;;;;;5.50;4.75;;;;;15.47;89.87;99611.75;6221772;22;45337;-84
2023/10/31 07:22:15;;;;;;;;;2.00;2.00;;;;;15.52;89.50;99607.19;6193507;22;46981;-84
2023/10/31 07:24:41;;;;;;;;;3.00;3.00;;;;;15.57;89.51;99614.19;6218851;22;44764;-84
2023/10/31 07:27:09;;;;;;;;;2.00;2.00;;;;;15.76;89.50;99613.78;6217415;22;45447;-84
2023/10/31 07:29:34;;;;;;;;;5.25;3.00;;;;;15.59;89.17;99606.09;6192794;22;44897;-84
2023/10/31 07:32:00;;;;;;;;;3.67;3.67;;;;;15.67;89.11;99609.47;6216364;22;47074;-84
2023/10/31 07:34:25;;;;;;;;;1.00;1.00;;;;;15.64;88.75;99601.50;6218572;22;45424;-84
2023/10/31 07:36:51;;;;;;;;;2.50;2.50;;;;;15.74;88.51;99619.16;6193529;22;44837;-85
2023/10/31 07:39:17;;;;;;;;;3.75;3.00;;;;;15.77;88.53;99621.78;6222618;22;45376;-85
2023/10/31 07:41:44;;;;;;;;;1.00;1.00;;;;;15.76;88.28;99627.16;6220341;22;46371;-85
2023/10/31 07:50:57;;;;;;;;;1.50;1.50;;;;;16.13;87.85;99640.50;6222211;22;45294;-83
2023/10/31 07:53:22;;;;;;;;;3.00;3.00;;;;;16.00;87.48;99636.41;6219875;22;48158;-83
2023/10/31 07:55:48;;;;;;;;;4.50;3.00;;;;;16.07;87.28;99648.72;6220972;22;44835;-84
2023/10/31 07:58:14;;;;;;;;;3.25;3.00;;;;;16.08;86.89;99649.59;6195135;22;45452;-84
2023/10/31 08:00:42;;;;;;;;;4.00;4.00;;;;;16.23;86.79;99635.78;6195795;22;45374;-84
2023/10/31 08:03:10;;;;;;;;;5.00;2.00;;;;;16.09;86.84;99649.53;6193201;22;47165;-84
2023/10/31 08:05:35;;;;;;;;;4.75;4.75;;;;;16.11;86.77;99652.19;6190242;22;44820;-84
2023/10/31 08:08:01;;;;;;;;;5.50;5.25;;;;;16.14;86.71;99644.09;6190982;22;45456;-83
2023/10/31 08:10:27;;;;;;;;;6.00;4.00;;;;;16.15;87.14;99641.34;6192740;22;44885;-85
2023/10/31 08:16:21;;;;;;;;;1.25;1.00;;;;;16.44;85.96;99658.47;6189994;22;45330;-82
2023/10/31 08:18:47;;;;;;;;;2.25;2.25;;;;;16.30;85.70;99676.72;6163466;23;45331;-84
2023/10/31 08:21:12;;;;;;;;;2.50;2.50;;;;;16.34;85.83;99681.09;6190019;23;45366;-84
2023/10/31 08:23:38;;;;;;;;;2.75;2.00;;;;;16.28;85.56;99665.16;6191263;22;45258;-84
2023/10/31 08:26:06;;;;;;;;;4.75;3.00;;;;;16.38;85.56;99677.41;6190667;22;45355;-84
2023/10/31 08:28:40;;;;;;;;;3.50;3.50;;;;;16.62;85.32;99669.59;6186347;23;45519;-84
2023/10/31 08:31:13;;;;;;;;;3.00;2.75;;;;;16.53;85.06;99658.22;6164673;23;45286;-85
2023/10/31 08:39:31;;;;;;;;;2.00;2.00;;;;;16.41;84.13;99661.22;6243592;22;45798;-83
2023/10/31 08:41:58;;;;;;;;;3.00;1.50;;;;;16.60;84.78;99675.00;6222030;22;44843;-82
2023/10/31 08:44:25;;;;;;;;;2.00;2.00;;;;;16.55;84.39;99667.09;6223782;22;47731;-83
2023/10/31 08:46:51;;;;;;;;;1.50;1.50;;;;;16.55;83.95;99651.00;6251113;22;45460;-83
2023/10/31 08:49:19;;;;;;;;;2.25;2.00;;;;;16.85;83.78;99712.84;6253546;22;45391;-82
2023/10/31 08:51:47;;;;;;;;;1.75;1.75;;;;;16.89;83.95;99698.41;6251350;22;44868;-82
2023/10/31 08:54:23;;;;;;;;;1.25;1.25;;;;;16.78;83.41;99673.63;6251677;22;45720;-83
2023/10/31 08:56:57;;;;;;;;;2.00;2.00;;;;;16.99;83.22;99670.34;6224803;22;45709;-83
2023/10/31 08:59:22;;;;;;;;;3.00;2.00;;;;;16.85;83.45;99688.69;6247908;22;44834;-83
2023/10/31 09:02:03;;;;;;;;;2.75;2.75;;;;;17.22;83.11;99716.28;6239956;22;44910;-81
2023/10/31 09:04:28;;;;;;;;;5.50;3.25;;;;;17.00;82.69;99717.75;6251519;22;47050;-83
2023/10/31 09:06:57;;;;;;;;;1.25;1.25;;;;;17.06;82.81;99700.59;6223369;22;45460;-84
2023/10/31 09:09:22;;;;;;;;;1.00;1.00;;;;;16.88;82.52;99736.91;6249609;22;45333;-84
2023/10/31 09:11:51;;;;;;;;;3.00;3.00;;;;;16.82;83.18;99715.59;6249912;22;44733;-85
2023/10/31 09:14:45;;;;;;;;;4.50;3.25;;;;;17.21;82.75;99731.53;6219890;22;46963;-83
2023/10/31 09:17:12;;;;;;;;;5.25;2.75;;;;;16.81;82.72;99697.75;6221379;22;45289;-82
2023/10/31 09:19:59;;;;;;;;;3.50;3.50;;;;;17.10;82.60;99717.50;6223006;22;45516;-83
2023/10/31 09:22:24;;;;;;;;;2.75;2.75;;;;;16.81;83.00;99727.28;6225276;22;45440;-83
2023/10/31 09:24:50;;;;;;;;;2.00;2.00;;;;;16.98;82.91;99748.28;6223221;22;47704;-82
2023/10/31 09:27:15;;;;;;;;;3.50;3.50;;;;;16.92;83.30;99746.66;6250049;22;45442;-83
2023/10/31 09:29:51;;;;;;;;;3.25;2.75;;;;;17.18;83.07;99740.53;6223364;22;45454;-85
2023/10/31 09:32:19;;;;;;;;;3.50;3.50;;;;;17.24;82.64;99743.97;6250976;22;45413;-82
2023/10/31 09:34:52;;;;;;;;;2.00;2.00;;;;;16.93;82.60;99732.31;6219060;22;47128;-83
2023/10/31 09:37:29;;;;;;;;;4.75;3.00;;;;;17.01;82.50;99742.84;6222382;22;45300;-84
2023/10/31 09:40:25;;;;;;;;;4.00;3.00;;;;;17.47;82.08;99756.72;6195399;22;45400;-84
2023/10/31 09:43:00;;;;;;;;;3.50;2.75;;;;;17.51;81.56;99724.34;6224349;22;45282;-85
2023/10/31 09:46:11;;;;;;;;;3.00;1.25;;;;;17.95;80.33;99759.72;6194886;22;45229;-85
2023/10/31 09:49:30;;;;;;;;;5.00;3.75;;;;;17.83;79.92;99738.59;6216307;22;45365;-84
2023/10/31 09:52:06;;;;;;;;;2.00;2.00;;;;;18.00;79.85;99756.91;6193761;22;45385;-83
2023/10/31 09:54:33;;;;;;;;;2.00;1.00;;;;;17.84;79.08;99720.69;6219979;22;45531;-82
2023/10/31 09:56:59;;;;;;;;;2.25;1.00;;;;;18.08;78.59;99776.38;6219236;22;46921;-83
2023/10/31 09:59:42;;;;;;;;;2.00;2.00;;;;;18.06;78.53;99753.16;6193316;22;45419;-82
2023/10/31 10:02:10;;;;;;;;;2.00;2.00;;;;;17.85;77.54;99749.31;6190103;22;45506;-82
2023/10/31 10:05:05;;;;;;;;;0.75;0.75;;;;;18.07;77.06;99746.81;6216218;22;45428;-82
2023/10/31 10:23:12;;;;;;;;;4.25;3.25;;;;;18.02;77.80;99800.78;6228864;22;45354;-85
2023/10/31 10:25:45;;;;;;;;;3.75;2.00;;;;;18.22;77.24;99804.63;6221791;22;44990;-87
2023/10/31 10:28:14;;;;;;;;;1.00;1.00;;;;;18.47;75.86;99784.06;6222916;22;47081;-85
2023/10/31 10:30:41;;;;;;;;;1.00;1.00;;;;;18.36;76.71;99767.38;6221630;22;44898;-86
2023/10/31 10:33:07;;;;;;;;;0.75;0.75;;;;;18.79;76.15;99806.34;6220700;22;45193;-87
2023/10/31 10:35:34;;;;;;;;;1.00;1.00;;;;;18.96;75.75;99816.53;6220869;22;44781;-86
2023/10/31 10:38:12;;;;;;;;;4.00;1.75;;;;;19.13;75.27;99816.81;6251053;22;47153;-87
2023/10/31 10:40:41;;;;;;;;;1.40;1.00;;;;;19.12;74.19;99784.53;6255521;22;45283;-87
2023/10/31 10:43:25;;;;;;;;;2.00;2.00;;;;;19.18;74.08;99776.22;6232207;22;44905;-87
2023/10/31 10:45:58;;;;;;;;;3.00;2.00;;;;;19.46;73.72;99813.81;6253286;22;45278;-87
2023/10/31 10:48:25;;;;;;;;;3.50;2.75;;;;;19.19;73.30;99792.34;6226937;22;45236;-86
2023/10/31 10:51:20;;;;;;;;;3.80;2.20;;;;;19.32;72.19;99783.81;6221182;22;44764;-84
2023/10/31 10:54:06;;;;;;;;;2.00;2.00;;;;;19.40;71.72;99830.22;6219845;22;44858;-89
2023/10/31 10:56:56;;;;;;;;;2.00;2.00;;;;;19.15;72.30;99785.31;6204150;22;45374;-86
2023/10/31 10:59:40;;;;;;;;;2.00;2.00;;;;;19.39;72.40;99841.97;6221063;22;46762;-88
2023/10/31 11:02:15;;;;;;;;;3.00;2.00;;;;;19.28;72.73;99830.69;6225332;22;44952;-85
2023/10/31 11:04:48;;;;;;;;;4.00;3.00;;;;;19.38;72.20;99797.91;6222436;22;44953;-87
2023/10/31 11:08:03;;;;;;;;;3.00;1.75;;;;;19.87;71.36;99832.09;6229758;22;45431;-84
2023/10/31 11:13:24;;;;;;;;;2.50;2.25;;;;;19.68;70.21;99811.19;6258118;22;44841;-86
2023/10/31 11:16:06;;;;;;;;;1.00;1.00;;;;;19.98;70.33;99808.28;6225182;22;44780;-86
2023/10/31 11:18:32;;;;;;;;;1.00;1.00;;;;;19.96;70.91;99838.03;6224237;22;44951;-87
2023/10/31 11:20:59;;;;;;;;;1.00;1.00;;;;;20.19;70.54;99820.91;6251916;22;46176;-89
2023/10/31 11:23:28;;;;;;;;;3.25;3.25;;;;;20.22;70.18;99832.50;6223720;22;44876;-86
2023/10/31 11:25:54;;;;;;;;;2.25;2.25;;;;;19.97;69.83;99825.41;6250622;22;45376;-88
2023/10/31 11:28:23;;;;;;;;;1.75;1.75;;;;;19.91;69.15;99841.81;6255285;22;45267;-87
2023/10/31 11:31:07;;;;;;;;;1.50;1.00;;;;;19.94;68.82;99848.00;6204011;22;47193;-88
2023/10/31 11:33:47;;;;;;;;;2.50;2.50;;;;;19.71;69.49;99830.00;6227148;22;45339;-88
2023/10/31 11:36:16;;;;;;;;;2.25;2.25;;;;;19.56;69.85;99857.50;6225650;22;44982;-86
2023/10/31 11:38:42;;;;;;;;;3.00;2.00;;;;;19.39;69.78;99818.56;6252463;22;44946;-86
2023/10/31 11:41:08;;;;;;;;;1.25;1.25;;;;;19.59;69.48;99846.59;6247511;22;45267;-88
2023/10/31 11:44:00;;;;;;;;;4.50;2.00;;;;;19.81;69.27;99835.03;6228406;22;44976;-87
2023/10/31 11:47:00;;;;;;;;;;;;;;;;;;;;;
2023/10/31 11:53:05;;;;;;;;;1.00;1.00;;;;;19.99;68.72;99808.19;6251807;22;45316;-87
2023/10/31 11:55:47;;;;;;;;;3.75;3.75;;;;;20.01;68.69;99827.03;6251537;22;45467;-87
2023/10/31 11:58:30;;;;;;;;;0.75;0.75;;;;;20.14;69.28;99847.22;6254536;22;45317;-88
2023/10/31 12:01:09;;;;;;;;;1.50;1.25;;;;;20.04;69.11;99829.63;6225612;22;44928;-85
2023/10/31 12:03:47;;;;;;;;;2.50;2.50;;;;;20.22;69.41;99837.91;6252198;22;45193;-86
2023/10/31 12:06:14;;;;;;;;;2.25;1.50;;;;;20.02;68.54;99838.69;6249012;22;44672;-87
2023/10/31 12:08:44;;;;;;;;;2.75;2.00;;;;;20.25;68.46;99835.97;6225881;22;45542;-86
2023/10/31 12:11:15;;;;;;;;;5.00;2.75;;;;;20.27;68.37;99844.03;6222584;22;45350;-86
2023/10/31 12:14:04;;;;;;;;;2.50;2.50;;;;;20.13;68.81;99856.25;6229436;22;45494;-84
2023/10/31 12:16:31;;;;;;;;;2.75;2.75;;;;;20.11;68.65;99846.44;6217558;22;45201;-85
2023/10/31 12:19:03;;;;;;;;;3.75;2.75;;;;;20.26;68.10;99858.44;6245081;22;45447;-84
2023/10/31 12:21:49;;;;;;;;;0.50;0.50;;;;;20.26;67.54;99850.34;6218583;22;45454;-85
2023/10/31 12:24:17;;;;;;;;;4.25;3.00;;;;;20.16;68.48;99868.75;6241424;22;48123;-84
2023/10/31 12:26:44;;;;;;;;;2.50;2.00;;;;;20.07;68.18;99836.72;6221250;22;45327;-84
2023/10/31 12:29:20;;;;;;;;;3.50;1.00;;;;;20.55;67.77;99868.97;6246297;22;45625;-87
2023/10/31 12:31:53;;;;;;;;;3.00;2.00;;;;;20.58;67.49;99866.19;6224150;22;45339;-85
2023/10/31 12:34:59;;;;;;;;;3.00;3.00;;;;;20.78;67.22;99875.25;6251094;22;46750;-88
2023/10/31 12:37:26;;;;;;;;;2.00;2.00;;;;;20.62;66.91;99871.44;6243740;22;45359;-81
2023/10/31 12:39:52;;;;;;;;;3.50;3.50;;;;;20.68;66.89;99872.09;6219339;22;44788;-80
2023/10/31 12:42:21;;;;;;;;;2.00;2.00;;;;;20.69;66.78;99865.72;6220771;22;45421;-83
2023/10/31 12:44:50;;;;;;;;;1.25;1.25;;;;;20.66;66.60;99873.06;6219745;22;46008;-86
2023/10/31 12:47:22;;;;;;;;;6.00;2.75;;;;;20.83;65.82;99859.75;6225177;22;44943;-84
2023/10/31 12:49:47;;;;;;;;;2.75;2.75;;;;;20.57;65.83;99858.97;6221116;22;45226;-86
2023/10/31 12:52:16;;;;;;;;;2.00;2.00;;;;;20.51;65.91;99861.91;6227321;22;45112;-85
2023/10/31 12:57:24;;;;;;;;;2.50;2.50;;;;;20.77;66.06;99846.50;6191240;22;45175;-84
2023/10/31 12:59:50;;;;;;;;;2.00;2.00;;;;;20.45;65.41;99826.19;6165613;22;44899;-86
2023/10/31 13:02:22;;;;;;;;;1.75;1.75;;;;;20.96;65.49;99881.72;6164370;23;45502;-87
2023/10/31 13:04:48;;;;;;;;;3.00;2.00;;;;;20.58;64.54;99863.47;6139026;23;46789;-85
2023/10/31 13:07:57;;;;;;;;;1.50;1.50;;;;;21.05;64.26;99880.47;6160767;23;45419;-87
2023/10/31 13:10:27;;;;;;;;;2.00;2.00;;;;;20.87;63.21;99872.19;6190438;23;45127;-81
2023/10/31 13:12:53;;;;;;;;;4.25;2.00;;;;;20.69;63.33;99881.06;6112333;23;45305;-86
2023/10/31 13:15:23;;;;;;;;;3.00;0.75;;;;;20.60;64.50;99862.53;6189125;23;45574;-86
2023/10/31 13:17:50;;;;;;;;;1.00;1.00;;;;;20.58;63.50;99893.19;6138754;23;45413;-86
2023/10/31 13:20:17;;;;;;;;;4.50;2.00;;;;;20.53;63.27;99897.84;6168187;22;44703;-87
2023/10/31 13:22:43;;;;;;;;;1.75;1.75;;;;;20.46;64.08;99899.06;6195216;23;45294;-86
2023/10/31 13:25:10;;;;;;;;;1.25;1.25;;;;;20.45;64.04;99881.09;6168821;23;47330;-87
2023/10/31 13:27:52;;;;;;;;;3.00;2.00;;;;;20.49;63.57;99876.44;6195110;22;45369;-86
2023/10/31 13:30:20;;;;;;;;;2.00;2.00;;;;;20.32;63.42;99886.09;6189558;23;45392;-84
2023/10/31 13:32:47;;;;;;;;;2.00;2.00;;;;;20.44;63.82;99898.25;6189551;23;45303;-82
2023/10/31 13:35:14;;;;;;;;;4.00;3.00;;;;;20.50;63.67;99910.59;6159700;23;47112;-82
2023/10/31 13:37:43;;;;;;;;;3.00;1.75;;;;;20.74;63.44;99897.94;6134210;23;45121;-83
2023/10/31 13:40:09;;;;;;;;;1.00;1.00;;;;;20.63;63.25;99897.53;6158593;23;45276;-82
2023/10/31 13:42:37;;;;;;;;;3.50;2.25;;;;;20.51;62.69;99880.84;6155183;23;45322;-84
2023/10/31 13:45:04;;;;;;;;;1.25;1.25;;;;;20.57;62.97;99890.50;6131254;23;47445;-82
2023/10/31 13:47:35;;;;;;;;;0.00;0.00;;;;;20.63;63.01;99905.63;6132352;23;45383;-81
2023/10/31 13:50:00;;;;;;;;;2.00;2.00;;;;;20.48;63.04;99864.75;6161770;22;45328;-83
2023/10/31 13:52:26;;;;;;;;;1.25;1.25;;;;;20.62;62.99;99876.84;6138921;23;45262;-81
2023/10/31 13:54:52;;;;;;;;;2.00;2.00;;;;;20.68;63.03;99887.41;6134410;23;46895;-83
2023/10/31 13:57:17;;;;;;;;;3.50;1.00;;;;;20.66;62.58;99873.06;6159870;22;45220;-83
2023/10/31 13:59:43;;;;;;;;;2.50;2.50;;;;;20.73;63.21;99891.66;6139030;23;45336;-81
2023/10/31 14:02:08;;;;;;;;;0.00;0.00;;;;;20.71;62.35;99879.19;6160999;23;44804;-82
2023/10/31 14:04:34;;;;;;;;;1.50;1.25;;;;;20.65;62.46;99872.19;6155524;23;47009;-81
2023/10/31 14:07:00;;;;;;;;;1.75;1.75;;;;;20.68;62.88;99900.91;6157712;23;45294;-81
2023/10/31 14:09:30;;;;;;;;;2.75;2.25;;;;;20.79;62.99;99893.25;6161266;23;45041;-82
2023/10/31 14:11:56;;;;;;;;;3.50;2.75;;;;;20.53;62.95;99886.19;6137119;23;45702;-85
2023/10/31 14:14:22;;;;;;;;;2.00;2.00;;;;;20.48;62.68;99890.88;6131451;23;46747;-82
2023/10/31 14:16:48;;;;;;;;;1.00;1.00;;;;;20.48;63.48;99902.59;6195120;22;45377;-83
2023/10/31 14:19:15;;;;;;;;;2.00;2.00;;;;;20.55;63.20;99897.81;6223457;22;45232;-87
2023/10/31 14:21:42;;;;;;;;;2.00;2.00;;;;;20.36;63.59;99914.75;6225193;22;44906;-82
2023/10/31 14:24:34;;;;;;;;;4.00;3.50;;;;;20.45;63.67;99888.31;6175325;22;46597;-87
2023/10/31 14:29:37;;;;;;;;;4.75;3.25;;;;;20.35;63.65;99888.66;6179394;22;45225;-86
2023/10/31 14:32:09;;;;;;;;;2.00;2.00;;;;;20.41;63.69;99900.19;6164799;22;45337;-82
2023/10/31 14:34:35;;;;;;;;;3.00;2.50;;;;;20.18;63.97;99889.34;6186835;22;48268;-83